GMFF Airport Information

Runway Information
Runway 09 Length 10499 ft width 148 ft
Elevation 1854 ft Threshold 0 ft Heading 90
Runway 27 Length 10499 ft Width 148 ft
Elevation 1890 ft Threshold 820 ft Heading 270
Airport Frequencies
Type TWR Name TWR Frequency 118.6 MHZ
Airport Navaids
Type VOR-DME Name Saiss Frequency 115700 KHZ
Airport Weather Information & NOTAM
ADDS - METARS form results

(1920 UTC 25 June 2018)
 
METAR text: GMFF 251900Z 29005KT 9999 BKN024 23/17 Q1020 NOSIG
Conditions at: GMFF (FES-SAIS , MA) observed 1900 UTC 25 June 2018
Temperature: 23.0°C (73°F)
Dewpoint: 17.0°C (63°F) [RH = 69%]
Pressure (altimeter): 30.12 inches Hg (1020.0 mb)
Winds: from the WNW (290 degrees) at 6 MPH (5 knots; 2.6 m/s)
Visibility: 6 or more miles (10+ km)
Ceiling: 2400 feet AGL
Clouds: broken clouds at 2400 feet AGL
Weather: no significant weather observed at this time

METAR text: GMFF 251830Z 30005KT 9999 BKN024 23/18 Q1019 NOSIG
Conditions at: GMFF (FES-SAIS , MA) observed 1830 UTC 25 June 2018
Temperature: 23.0°C (73°F)
Dewpoint: 18.0°C (64°F) [RH = 73%]
Pressure (altimeter): 30.09 inches Hg (1019.0 mb)
Winds: from the WNW (300 degrees) at 6 MPH (5 knots; 2.6 m/s)
Visibility: 6 or more miles (10+ km)
Ceiling: 2400 feet AGL
Clouds: broken clouds at 2400 feet AGL
Weather: no significant weather observed at this time